Chicago Midway International Airport
KMDW : now visible

Airfield :











YOU CAN JOIN US ON...

 
LOGIN :

Register | Disclaimer

   EN    FR    IT 

 









Legend :    VFR   Marginal VFR   IFR   Intensive IFR   Very Intensive IFR
Visi :
Ceiling :
>= 8 km
>= 3000ft
5 to 8 km
1000 to 3000 ft
1500m to 5 km
500 to 1000 ft
800 to 1500m
200 to 500 ft
< 800m
< 200 ft
Symbols :   Thunderstorms  Fog  Heavy snow  Heavy precipitations  Wind > 20 kt






- Airport Elevation : 620 ft
- IATA code : MDW


KMDW - Chicago Midway International

CURRENT METAR :
  • 182053Z 14014G22KT 10SM FEW035 FEW065 BKN100 BKN130 OVC200 23/13 A3017 RMK AO2 RAB18E36 SLP209 P0000 60000 T02280133 58010

EXPIRED METARs :
  • 181953Z 14013KT 10SM FEW039 FEW050 BKN095 OVC180 23/13 A3018 RMK AO2 SLP217 T02280128
  • 181853Z 15014G20KT 10SM FEW050 BKN090 OVC120 23/13 A3019 RMK AO2 PK WND 14026/1827 SLP219 T02280128

TAF KMDW
Valid from the 18 at 21:00 until the 20 at 00:00 UTC


182058Z 1821/1924 15012G21KT P6SM -SHRA SCT020 SCT035 OVC070
FM190600 16011G18KT P6SM VCSH BKN025 OVC050
TEMPO 1912/1916 5SM -SHRA
FM191600 18013G21KT P6SM BKN050
KZAU FIR / North America



MET'MAP, your aeronautical weather chart ! - Copyright ORBIFLY December 2007 - Disclaimer

ORBIFLY MET'MAP TEAM :

Programming & Development : Alexandra Zaïnal
Concept & original design : Baudouin d'Aumeries
Assistance for programming : Marc-Olivier Méhu
Technical & hardware support : Manuel Goepfert

Contact : metmap@orbifly.com




SOURCES & CREDITS :

   NOAA       Earth
Advisory